Time;durP1;ratioP1;P1;durP2;ratioP2;P2;SDS_P1;SDS_P2;PMS_P1;PMS_P2;Temp;Humidity;BMP_temperature;BMP_pressure;BME280_temperature;BME280_humidity;BME280_pressure;Samples;Min_cycle;Max_cycle;Signal;HPM_P1;HPM_P2
2022/11/11 00:01:13;;;;;;;71.47;29.03;;;13.30;89.30;;;;;;5083884;28;20747;-80
2022/11/11 00:03:42;;;;;;;62.10;27.43;;;13.20;89.30;;;;;;5087054;28;20251;-79
2022/11/11 00:06:11;;;;;;;62.80;30.20;;;13.20;89.20;;;;;;5085980;28;20217;-80
2022/11/11 00:08:40;;;;;;;59.63;27.43;;;13.20;89.20;;;;;;5088024;28;20201;-80
2022/11/11 00:11:11;;;;;;;55.33;28.83;;;13.20;89.10;;;;;;5085181;28;20280;-79
2022/11/11 00:13:41;;;;;;;57.70;26.90;;;13.20;89.10;;;;;;5089490;28;20654;-80
2022/11/11 00:16:10;;;;;;;57.50;29.57;;;13.20;89.10;;;;;;5084059;28;20194;-80
2022/11/11 00:27:09;;;;;;;65.65;32.65;;;13.20;88.90;;;;;;5091220;28;20434;-80
2022/11/11 00:29:38;;;;;;;68.10;29.73;;;13.20;89.30;;;;;;5091317;28;20244;-80
2022/11/11 00:32:26;;;;;;;62.03;29.87;;;13.10;89.10;;;;;;5090788;28;20859;-80
2022/11/11 00:37:43;;;;;;;58.67;29.17;;;13.10;89.00;;;;;;5089244;28;20194;-79
2022/11/11 00:40:12;;;;;;;54.23;27.40;;;13.10;88.90;;;;;;5083620;28;20218;-79
2022/11/11 00:42:42;;;;;;;69.30;31.07;;;13.00;88.80;;;;;;5087331;28;20274;-80
2022/11/11 00:45:12;;;;;;;62.70;28.27;;;13.00;88.80;;;;;;5088669;28;20202;-80
2022/11/11 00:53:16;;;;;;;56.30;28.40;;;13.00;88.70;;;;;;5089404;28;20205;-80
2022/11/11 00:55:52;;;;;;;63.10;29.03;;;13.00;88.70;;;;;;5084474;28;20198;-80
2022/11/11 00:58:22;;;;;;;59.37;29.00;;;13.00;88.70;;;;;;5094528;28;20193;-80
2022/11/11 01:00:52;;;;;;;54.57;27.63;;;13.00;88.70;;;;;;5089906;28;20312;-80
2022/11/11 01:03:22;;;;;;;59.40;28.63;;;13.00;88.70;;;;;;5054093;28;20224;-80
2022/11/11 01:05:50;;;;;;;61.83;29.00;;;13.00;88.70;;;;;;5087155;28;20236;-80
2022/11/11 01:08:18;;;;;;;54.60;26.90;;;13.00;88.70;;;;;;5091689;28;20198;-81
2022/11/11 01:10:48;;;;;;;58.47;29.57;;;13.00;88.70;;;;;;5093885;28;21359;-81
2022/11/11 01:13:22;;;;;;;60.97;28.37;;;13.00;88.70;;;;;;5088756;28;20284;-81
2022/11/11 01:15:54;;;;;;;57.93;29.80;;;13.10;88.70;;;;;;5087546;28;20259;-79
2022/11/11 01:18:24;;;;;;;57.57;28.93;;;13.10;88.80;;;;;;5088141;28;20219;-80
2022/11/11 01:21:00;;;;;;;65.97;29.87;;;13.00;88.70;;;;;;5091174;28;20213;-78
2022/11/11 01:23:30;;;;;;;64.13;29.27;;;13.00;88.70;;;;;;5093707;28;20636;-80
2022/11/11 01:26:02;;;;;;;62.97;30.03;;;13.00;88.70;;;;;;5093034;28;20247;-80
2022/11/11 01:28:31;;;;;;;56.20;28.93;;;13.00;88.70;;;;;;5084654;28;20197;-82
2022/11/11 01:31:06;;;;;;;65.07;30.37;;;13.00;88.70;;;;;;5084703;28;20205;-81
2022/11/11 01:33:35;;;;;;;61.27;28.03;;;13.00;88.70;;;;;;5086174;28;20667;-82
2022/11/11 01:36:06;;;;;;;56.57;28.63;;;12.90;88.70;;;;;;5091463;28;20197;-81
2022/11/11 01:38:35;;;;;;;58.03;29.60;;;12.90;88.70;;;;;;5087751;28;20189;-82
2022/11/11 01:41:31;;;;;;;60.87;29.60;;;12.90;88.70;;;;;;5086773;28;20218;-80
2022/11/11 01:43:54;;;;;;;63.90;30.53;;;12.90;88.80;;;;;;5087195;28;20284;-79
2022/11/11 01:46:31;;;;;;;57.97;27.33;;;12.90;88.80;;;;;;5086524;28;20199;-81
2022/11/11 01:49:20;;;;;;;65.13;29.37;;;12.90;88.90;;;;;;5090326;28;20197;-81
2022/11/11 01:51:54;;;;;;;59.80;28.03;;;12.90;88.90;;;;;;5087928;28;20189;-78
2022/11/11 01:54:27;;;;;;;57.87;27.67;;;12.90;88.90;;;;;;5082602;28;20665;-81
2022/11/11 01:57:00;;;;;;;64.27;29.23;;;12.90;88.90;;;;;;5088266;28;20204;-81
2022/11/11 01:59:31;;;;;;;64.30;30.40;;;12.90;88.90;;;;;;5090824;28;20189;-80
2022/11/11 02:02:05;;;;;;;58.53;30.30;;;13.00;88.90;;;;;;5089396;28;20217;-80
2022/11/11 02:07:21;;;;;;;65.13;29.13;;;13.00;88.90;;;;;;5089092;28;20243;-81
2022/11/11 02:09:52;;;;;;;61.03;29.20;;;13.00;88.90;;;;;;5088689;28;20198;-81
2022/11/11 02:15:07;;;;;;;59.70;28.30;;;13.00;88.80;;;;;;5084664;28;20201;-81
2022/11/11 02:17:37;;;;;;;65.07;30.03;;;13.10;88.80;;;;;;5087271;28;20194;-81
2022/11/11 02:20:08;;;;;;;58.80;28.47;;;13.10;89.60;;;;;;5089076;28;20711;-81
2022/11/11 02:22:45;;;;;;;60.13;29.03;;;13.10;88.70;;;;;;5088097;28;20224;-81
2022/11/11 02:25:20;;;;;;;60.63;27.87;;;13.10;88.70;;;;;;5089608;28;20276;-81
2022/11/11 02:27:51;;;;;;;59.43;29.33;;;13.20;88.70;;;;;;5087620;28;20280;-81
2022/11/11 02:30:21;;;;;;;67.47;29.50;;;13.20;88.70;;;;;;5083854;28;20194;-81
2022/11/11 02:32:52;;;;;;;66.73;29.80;;;13.20;88.70;;;;;;5087816;28;20194;-81
2022/11/11 02:35:24;;;;;;;62.27;29.90;;;13.20;88.70;;;;;;5083419;28;20319;-81
2022/11/11 02:37:53;;;;;;;54.40;27.20;;;13.20;88.70;;;;;;5089244;28;20202;-81
2022/11/11 02:40:27;;;;;;;62.67;28.63;;;13.20;89.20;;;;;;5088315;28;20197;-82
2022/11/11 02:42:55;;;;;;;60.43;29.87;;;13.10;89.50;;;;;;5090214;28;20237;-81
2022/11/11 02:45:24;;;;;;;65.90;31.63;;;13.20;89.30;;;;;;5086651;28;20202;-81
2022/11/11 02:47:52;;;;;;;62.93;29.10;;;13.20;89.40;;;;;;5085295;28;20218;-81
2022/11/11 02:50:21;;;;;;;66.20;30.83;;;13.20;89.30;;;;;;5090616;28;20209;-78
2022/11/11 02:52:49;;;;;;;58.70;31.30;;;13.20;89.30;;;;;;5089192;28;20193;-81
2022/11/11 02:55:18;;;;;;;69.47;33.47;;;13.20;89.20;;;;;;5090068;28;20260;-80
2022/11/11 02:57:47;;;;;;;65.63;33.57;;;13.20;89.10;;;;;;5085161;28;20204;-80
2022/11/11 03:00:17;;;;;;;70.28;34.88;;;13.20;89.00;;;;;;5085848;28;20952;-80
2022/11/11 03:02:46;;;;;;;67.70;33.93;;;13.20;89.40;;;;;;5092970;28;20209;-81
2022/11/11 03:05:14;;;;;;;61.97;31.20;;;13.30;89.40;;;;;;5090131;28;20531;-80
2022/11/11 03:07:42;;;;;;;70.87;33.73;;;13.30;89.30;;;;;;5090453;28;20247;-81
2022/11/11 03:10:11;;;;;;;66.13;31.50;;;13.30;89.30;;;;;;5087564;28;20623;-81
2022/11/11 03:12:39;;;;;;;70.17;33.43;;;13.30;89.10;;;;;;5087232;28;20194;-80
2022/11/11 03:15:10;;;;;;;72.57;32.33;;;13.30;89.10;;;;;;5087035;28;20202;-82
2022/11/11 03:17:40;;;;;;;64.60;32.23;;;13.40;89.10;;;;;;5088176;28;20213;-81
2022/11/11 03:23:00;;;;;;;66.23;30.97;;;13.50;89.10;;;;;;5089390;28;20298;-81
2022/11/11 03:25:37;;;;;;;82.20;31.17;;;13.50;89.10;;;;;;5091738;28;20267;-81
2022/11/11 03:28:05;;;;;;;62.23;30.57;;;13.50;89.20;;;;;;5090800;28;20201;-80
2022/11/11 03:30:36;;;;;;;59.23;29.53;;;13.50;89.10;;;;;;5085825;28;20197;-80
2022/11/11 03:33:04;;;;;;;63.57;30.93;;;13.60;89.10;;;;;;5087654;28;20414;-80
2022/11/11 03:35:33;;;;;;;59.43;30.47;;;13.60;89.10;;;;;;5090700;28;20194;-78
2022/11/11 03:38:22;;;;;;;56.57;28.57;;;13.70;89.10;;;;;;5089724;28;20633;-80
2022/11/11 03:40:52;;;;;;;63.57;31.40;;;13.70;89.20;;;;;;5084270;28;20202;-81
2022/11/11 03:43:23;;;;;;;65.50;31.53;;;13.70;89.10;;;;;;5087011;28;20217;-78
2022/11/11 03:45:53;;;;;;;71.00;35.28;;;13.80;89.10;;;;;;5085726;28;20437;-80
2022/11/11 03:48:22;;;;;;;62.00;32.03;;;13.80;89.20;;;;;;5082382;28;20190;-80
2022/11/11 03:50:51;;;;;;;64.63;31.10;;;13.80;89.10;;;;;;5089970;28;20269;-80
2022/11/11 03:53:21;;;;;;;62.90;29.87;;;13.90;89.20;;;;;;5085275;28;20202;-80
2022/11/11 03:55:51;;;;;;;62.50;28.70;;;13.90;89.10;;;;;;5087987;28;20626;-78
2022/11/11 03:58:19;;;;;;;51.70;23.87;;;13.90;89.10;;;;;;5088579;28;20202;-79
2022/11/11 04:00:52;;;;;;;42.33;21.83;;;14.00;89.10;;;;;;5086827;28;20302;-79
2022/11/11 04:11:53;;;;;;;41.13;20.37;;;14.10;89.70;;;;;;5092969;28;20189;-78
2022/11/11 04:17:08;;;;;;;40.43;20.70;;;14.10;90.00;;;;;;5084006;28;20194;-79
2022/11/11 04:22:22;;;;;;;43.70;20.17;;;14.20;90.00;;;;;;5090100;28;20205;-79
2022/11/11 04:27:36;;;;;;;40.63;18.47;;;14.20;90.20;;;;;;5093147;28;20469;-81
2022/11/11 04:30:04;;;;;;;39.00;19.67;;;14.20;90.10;;;;;;5086948;28;20202;-80
2022/11/11 04:32:38;;;;;;;36.03;17.90;;;14.20;90.00;;;;;;5090147;28;20626;-80
2022/11/11 04:35:09;;;;;;;32.53;17.50;;;14.30;90.00;;;;;;5088595;28;20188;-81
2022/11/11 04:37:48;;;;;;;35.43;17.93;;;14.20;89.90;;;;;;5088954;28;20193;-82
2022/11/11 04:43:03;;;;;;;33.07;15.87;;;14.30;90.00;;;;;;5084506;28;20646;-82
2022/11/11 04:45:30;;;;;;;32.67;17.20;;;14.30;89.80;;;;;;5086356;28;20251;-82
2022/11/11 04:48:02;;;;;;;34.70;14.63;;;14.30;90.00;;;;;;5087513;28;20210;-80
2022/11/11 04:50:32;;;;;;;29.17;14.47;;;14.30;90.00;;;;;;5092488;28;20211;-81
2022/11/11 04:53:01;;;;;;;29.23;15.13;;;14.30;90.00;;;;;;5091468;28;20221;-80
2022/11/11 04:58:17;;;;;;;28.83;14.50;;;14.40;90.10;;;;;;5080975;28;20198;-80
2022/11/11 05:00:45;;;;;;;29.23;14.73;;;14.40;90.00;;;;;;5082530;28;20320;-79
2022/11/11 05:03:15;;;;;;;31.40;14.93;;;14.40;90.00;;;;;;5086503;28;20578;-80
2022/11/11 05:11:18;;;;;;;27.33;14.27;;;14.40;90.30;;;;;;5097998;28;20554;-80
2022/11/11 05:22:14;;;;;;;24.40;12.67;;;14.40;90.30;;;;;;5099643;28;20569;-82
2022/11/11 05:27:28;;;;;;;29.20;13.33;;;14.40;90.40;;;;;;5092847;28;20190;-82
2022/11/11 05:29:56;;;;;;;25.03;13.20;;;14.50;90.40;;;;;;5095498;28;20208;-82
2022/11/11 05:32:25;;;;;;;27.60;14.30;;;14.50;90.60;;;;;;5094656;28;20216;-82
2022/11/11 05:34:54;;;;;;;24.37;12.97;;;14.40;90.70;;;;;;5096945;28;20247;-84
2022/11/11 05:37:23;;;;;;;24.50;13.73;;;14.50;90.60;;;;;;5092668;28;20197;-87
2022/11/11 05:39:51;;;;;;;26.23;13.47;;;14.50;91.00;;;;;;5093665;28;20232;-85
2022/11/11 05:42:20;;;;;;;30.30;13.97;;;14.50;90.70;;;;;;5095262;28;20221;-85
2022/11/11 05:44:48;;;;;;;25.60;13.27;;;14.50;90.70;;;;;;5093143;28;20225;-85
2022/11/11 05:47:17;;;;;;;34.07;14.47;;;14.50;90.70;;;;;;5091023;28;20251;-82
2022/11/11 05:49:45;;;;;;;35.03;14.60;;;14.50;90.90;;;;;;5090248;28;20307;-86
2022/11/11 05:52:16;;;;;;;29.67;14.50;;;14.50;90.80;;;;;;5092857;28;20304;-84
2022/11/11 05:54:45;;;;;;;27.23;13.70;;;14.50;90.80;;;;;;5094407;28;20201;-84
2022/11/11 05:57:13;;;;;;;26.40;13.40;;;14.50;90.90;;;;;;5088630;28;20198;-84
2022/11/11 05:59:42;;;;;;;28.50;13.87;;;14.50;91.00;;;;;;5088329;28;20947;-82
2022/11/11 06:02:11;;;;;;;25.77;14.27;;;14.40;91.00;;;;;;5092280;28;20247;-84
2022/11/11 06:04:39;;;;;;;32.00;14.33;;;14.50;91.00;;;;;;5094092;28;20198;-83
2022/11/11 06:07:07;;;;;;;28.97;13.60;;;14.50;91.00;;;;;;5091640;28;20217;-85
2022/11/11 06:09:37;;;;;;;27.90;12.97;;;14.50;91.00;;;;;;5097061;28;20251;-80
2022/11/11 06:12:06;;;;;;;25.67;13.70;;;14.50;91.00;;;;;;5089503;28;20194;-85
2022/11/11 06:14:34;;;;;;;29.07;13.80;;;14.50;91.20;;;;;;5092622;28;20194;-85
2022/11/11 06:17:02;;;;;;;28.17;13.60;;;14.50;91.30;;;;;;5096303;28;20242;-86
2022/11/11 06:19:31;;;;;;;28.20;14.03;;;14.50;91.30;;;;;;5094141;28;20201;-83
2022/11/11 06:22:00;;;;;;;34.57;14.07;;;14.50;91.30;;;;;;5094894;28;20194;-84
2022/11/11 06:24:29;;;;;;;27.53;13.40;;;14.50;91.40;;;;;;5094172;28;20222;-86
2022/11/11 06:26:58;;;;;;;27.93;14.13;;;14.50;91.40;;;;;;5092613;28;20276;-84
2022/11/11 06:29:29;;;;;;;24.77;13.33;;;14.60;91.40;;;;;;5095323;27;20201;-86
2022/11/11 06:31:57;;;;;;;26.33;13.07;;;14.60;91.50;;;;;;5091713;28;20228;-86
2022/11/11 06:34:26;;;;;;;26.77;13.10;;;14.50;92.00;;;;;;5094976;28;20630;-83
2022/11/11 06:36:54;;;;;;;24.53;13.27;;;14.60;91.80;;;;;;5091670;28;20238;-84
2022/11/11 06:39:22;;;;;;;22.90;11.93;;;14.60;91.80;;;;;;5087050;28;20707;-85
2022/11/11 06:41:50;;;;;;;25.53;12.47;;;14.60;91.90;;;;;;5089771;28;20251;-81
2022/11/11 06:44:20;;;;;;;26.50;12.63;;;14.60;92.10;;;;;;5087032;28;20218;-84
2022/11/11 06:46:48;;;;;;;27.20;13.33;;;14.60;92.00;;;;;;5086803;28;20227;-85
2022/11/11 06:49:17;;;;;;;22.93;12.00;;;14.60;92.30;;;;;;5094450;28;20539;-83
2022/11/11 06:51:45;;;;;;;23.37;11.37;;;14.60;92.20;;;;;;5093266;28;20255;-81
2022/11/11 06:54:14;;;;;;;22.60;12.03;;;14.60;92.20;;;;;;5093697;28;20330;-83
2022/11/11 06:56:42;;;;;;;25.20;12.40;;;14.60;92.40;;;;;;5087442;28;20243;-84
2022/11/11 06:59:10;;;;;;;24.50;12.40;;;14.60;92.80;;;;;;5091971;28;20244;-82
2022/11/11 07:01:40;;;;;;;24.83;12.52;;;14.60;92.80;;;;;;5091947;28;20442;-84
2022/11/11 07:04:08;;;;;;;27.97;12.97;;;14.60;92.80;;;;;;5092508;28;20256;-83
2022/11/11 07:06:36;;;;;;;21.87;12.30;;;14.60;92.90;;;;;;5089187;28;20225;-84
2022/11/11 07:09:05;;;;;;;25.17;11.77;;;14.50;93.00;;;;;;5085669;28;20202;-83
2022/11/11 07:11:33;;;;;;;23.13;11.70;;;14.60;93.00;;;;;;5088101;28;20201;-81
2022/11/11 07:14:01;;;;;;;25.83;12.27;;;14.60;93.00;;;;;;5089832;28;20583;-82
2022/11/11 07:16:29;;;;;;;24.37;12.53;;;14.60;93.20;;;;;;5087380;28;20205;-83
2022/11/11 07:18:59;;;;;;;24.67;11.10;;;14.60;93.40;;;;;;5094961;28;20197;-83
2022/11/11 07:21:27;;;;;;;23.97;11.83;;;14.60;93.40;;;;;;5094767;28;20915;-85
2022/11/11 07:23:55;;;;;;;20.63;11.53;;;14.50;93.60;;;;;;5099134;28;20213;-83
2022/11/11 07:26:24;;;;;;;23.67;12.33;;;14.60;93.50;;;;;;5086707;28;20227;-82
2022/11/11 07:28:52;;;;;;;23.97;12.47;;;14.60;93.60;;;;;;5090068;28;20229;-81
2022/11/11 07:31:20;;;;;;;20.70;11.73;;;14.50;93.80;;;;;;5085723;28;20201;-80
2022/11/11 07:33:48;;;;;;;21.63;11.93;;;14.50;93.80;;;;;;5090816;28;20558;-80
2022/11/11 07:36:18;;;;;;;22.57;11.03;;;14.40;94.20;;;;;;5086513;28;20207;-81
2022/11/11 07:38:47;;;;;;;22.40;11.40;;;14.50;94.20;;;;;;5090131;28;20190;-82
2022/11/11 07:41:15;;;;;;;22.27;10.33;;;14.50;94.20;;;;;;5092348;28;20189;-81
2022/11/11 07:43:43;;;;;;;19.53;10.60;;;14.40;94.40;;;;;;5089507;28;20241;-81
2022/11/11 07:46:11;;;;;;;21.90;11.10;;;14.40;94.30;;;;;;5080580;28;20968;-80
2022/11/11 07:48:40;;;;;;;22.57;12.33;;;14.40;94.40;;;;;;5084020;28;20202;-81
2022/11/11 07:51:08;;;;;;;21.23;12.17;;;14.50;94.30;;;;;;5086361;28;20658;-80
2022/11/11 07:53:38;;;;;;;26.15;14.35;;;14.50;94.40;;;;;;5087892;28;20468;-80
2022/11/11 07:56:07;;;;;;;24.90;13.37;;;14.50;94.80;;;;;;5087279;28;20198;-80
2022/11/11 07:58:35;;;;;;;24.87;13.30;;;14.50;94.80;;;;;;5087848;28;20225;-81
2022/11/11 08:01:03;;;;;;;22.93;11.90;;;14.50;94.70;;;;;;5089471;28;20316;-80
2022/11/11 08:03:48;;;;;;;25.03;11.77;;;14.40;94.90;;;;;;5087769;28;20288;-79
2022/11/11 08:06:18;;;;;;;26.73;11.73;;;14.50;94.60;;;;;;5089335;28;20189;-79
2022/11/11 08:08:48;;;;;;;22.77;12.10;;;14.50;94.90;;;;;;5087054;28;20198;-79
2022/11/11 08:13:39;;;;;;;19.93;9.93;;;14.50;94.70;;;;;;5094235;28;20315;-78
2022/11/11 08:14:04;;;;;;;23.23;11.40;;;14.60;94.70;;;;;;5089107;28;20190;-79
2022/11/11 08:16:33;;;;;;;22.17;11.60;;;14.60;95.10;;;;;;5090611;28;20229;-79
2022/11/11 08:19:01;;;;;;;21.13;10.83;;;14.50;95.00;;;;;;5083691;28;20225;-79
2022/11/11 08:21:29;;;;;;;24.00;12.20;;;14.60;94.90;;;;;;5087822;28;20198;-79
2022/11/11 08:24:02;;;;;;;25.77;12.20;;;14.60;95.10;;;;;;5087899;28;20213;-82
2022/11/11 08:26:52;;;;;;;24.13;12.17;;;14.60;95.30;;;;;;5088126;28;20275;-83
2022/11/11 08:29:20;;;;;;;22.80;11.37;;;14.50;95.20;;;;;;5084602;28;20194;-80
2022/11/11 08:31:49;;;;;;;23.03;11.10;;;14.50;95.30;;;;;;5073212;28;20633;-81
2022/11/11 08:34:17;;;;;;;22.83;12.40;;;14.50;95.20;;;;;;5070053;28;20305;-80
2022/11/11 08:36:45;;;;;;;23.20;11.73;;;14.50;95.20;;;;;;5067476;28;20193;-80
2022/11/11 08:39:19;;;;;;;23.07;10.47;;;14.50;95.30;;;;;;5066978;28;20654;-80
2022/11/11 08:41:47;;;;;;;18.90;10.63;;;14.50;95.20;;;;;;5074365;28;20594;-81
2022/11/11 08:44:15;;;;;;;20.17;9.93;;;14.40;95.60;;;;;;5073846;28;20222;-77
2022/11/11 08:46:44;;;;;;;17.50;8.90;;;14.50;95.50;;;;;;5078311;28;20206;-80
2022/11/11 08:49:12;;;;;;;17.90;9.60;;;14.50;95.40;;;;;;5071143;28;20202;-79
2022/11/11 08:51:40;;;;;;;17.27;9.53;;;14.50;95.50;;;;;;5071572;28;20194;-81
2022/11/11 08:54:12;;;;;;;18.13;9.33;;;14.50;95.80;;;;;;5073157;28;20259;-81
2022/11/11 08:56:42;;;;;;;15.07;8.60;;;14.50;95.70;;;;;;5067941;28;20199;-81
2022/11/11 08:59:11;;;;;;;17.93;8.27;;;14.50;95.70;;;;;;5076077;28;20503;-81
2022/11/11 09:01:39;;;;;;;15.60;8.70;;;14.50;95.60;;;;;;5071018;28;20588;-79
2022/11/11 09:04:07;;;;;;;17.40;9.65;;;14.60;95.50;;;;;;5065428;28;20443;-80
2022/11/11 09:07:11;;;;;;;16.23;8.37;;;14.60;95.60;;;;;;5067680;28;20562;-80
2022/11/11 09:09:40;;;;;;;17.83;7.90;;;14.70;95.60;;;;;;5074098;28;20205;-81
2022/11/11 09:12:10;;;;;;;14.80;8.77;;;14.70;95.50;;;;;;5072164;28;20194;-79
2022/11/11 09:14:38;;;;;;;15.97;7.13;;;14.70;95.50;;;;;;5075135;28;20182;-80
2022/11/11 09:17:07;;;;;;;13.63;7.57;;;14.70;95.30;;;;;;5070770;28;20274;-80
2022/11/11 09:19:38;;;;;;;12.13;7.30;;;14.70;95.40;;;;;;5060464;28;20235;-80
2022/11/11 09:22:06;;;;;;;13.13;6.80;;;14.70;95.40;;;;;;5070922;28;20444;-81
2022/11/11 09:24:34;;;;;;;13.23;6.90;;;14.70;95.30;;;;;;5072956;28;20225;-80
2022/11/11 09:27:03;;;;;;;12.70;6.93;;;14.80;95.50;;;;;;5067194;28;20297;-78
2022/11/11 09:29:32;;;;;;;12.60;6.03;;;14.80;95.40;;;;;;5068551;28;20256;-77
2022/11/11 09:32:01;;;;;;;11.50;6.03;;;14.80;95.40;;;;;;5052503;28;20244;-81
2022/11/11 09:34:29;;;;;;;12.27;6.03;;;14.80;95.30;;;;;;5071623;28;20370;-77
2022/11/11 09:36:57;;;;;;;9.50;5.07;;;14.80;95.40;;;;;;5068266;28;20205;-78
2022/11/11 09:39:26;;;;;;;9.20;4.10;;;14.80;95.20;;;;;;5070725;28;20194;-77
2022/11/11 09:42:04;;;;;;;7.40;4.23;;;14.80;95.20;;;;;;5069698;28;20238;-78
2022/11/11 09:44:51;;;;;;;7.43;3.50;;;14.80;95.20;;;;;;5071872;28;20293;-80
2022/11/11 09:47:26;;;;;;;6.03;3.00;;;14.80;95.20;;;;;;5064698;28;20191;-78
2022/11/11 09:50:00;;;;;;;4.87;2.67;;;14.80;95.30;;;;;;5066946;28;20267;-80
2022/11/11 09:52:33;;;;;;;5.20;2.53;;;14.80;95.20;;;;;;5070570;28;20233;-79
2022/11/11 09:55:06;;;;;;;4.50;2.53;;;14.80;95.30;;;;;;5062050;28;20259;-80
2022/11/11 09:57:38;;;;;;;5.93;2.40;;;14.80;95.10;;;;;;5070225;28;20198;-78
2022/11/11 10:00:16;;;;;;;3.90;1.87;;;14.90;95.20;;;;;;5065582;28;20222;-78
2022/11/11 10:02:52;;;;;;;2.87;1.97;;;14.80;95.30;;;;;;5074818;28;20236;-78
2022/11/11 10:05:26;;;;;;;7.03;2.27;;;14.90;95.20;;;;;;5070225;28;20576;-79
2022/11/11 10:08:01;;;;;;;5.17;2.30;;;14.90;95.30;;;;;;5071048;28;20202;-81
2022/11/11 10:10:38;;;;;;;2.73;1.73;;;14.90;95.20;;;;;;5069562;28;20267;-79
2022/11/11 10:13:14;;;;;;;3.87;2.10;;;14.90;95.20;;;;;;5073490;28;20190;-80
2022/11/11 10:15:57;;;;;;;3.87;1.97;;;14.90;95.10;;;;;;5070377;28;20187;-77
2022/11/11 10:18:36;;;;;;;4.47;2.30;;;14.90;95.20;;;;;;5067385;28;20202;-77
2022/11/11 10:21:13;;;;;;;5.73;2.40;;;15.00;95.10;;;;;;5068544;28;20651;-80
2022/11/11 10:23:46;;;;;;;5.90;3.20;;;15.00;95.30;;;;;;5070723;28;20289;-79
2022/11/11 10:26:20;;;;;;;4.73;2.30;;;15.00;95.50;;;;;;5069820;28;20250;-82
2022/11/11 10:28:51;;;;;;;3.40;1.90;;;15.00;95.50;;;;;;5039339;28;20221;-77
2022/11/11 10:31:23;;;;;;;4.20;2.20;;;14.90;95.60;;;;;;5073279;28;20226;-80
2022/11/11 10:33:56;;;;;;;4.07;2.13;;;15.00;95.50;;;;;;5070799;28;20720;-78
2022/11/11 10:36:28;;;;;;;4.97;2.47;;;15.00;95.50;;;;;;5072647;28;20230;-80
2022/11/11 10:39:05;;;;;;;6.37;2.23;;;15.10;95.40;;;;;;5072500;28;20202;-80
2022/11/11 10:41:38;;;;;;;3.97;2.47;;;15.10;95.30;;;;;;5069145;28;20222;-78
2022/11/11 10:44:20;;;;;;;4.85;2.80;;;15.10;95.30;;;;;;5070502;28;20432;-80
2022/11/11 10:46:58;;;;;;;4.37;2.40;;;15.20;95.20;;;;;;5071383;28;20206;-79
2022/11/11 10:49:31;;;;;;;5.83;2.60;;;15.20;95.30;;;;;;5071879;28;20226;-81
2022/11/11 10:52:07;;;;;;;3.93;2.57;;;15.30;95.40;;;;;;5065026;28;20192;-80
2022/11/11 10:54:41;;;;;;;5.53;2.80;;;15.30;95.40;;;;;;5072165;28;20277;-79
2022/11/11 10:57:15;;;;;;;4.23;2.90;;;15.40;95.30;;;;;;5068257;28;20194;-80
2022/11/11 10:59:49;;;;;;;4.20;2.53;;;15.40;95.20;;;;;;5069014;28;20194;-82
2022/11/11 11:02:23;;;;;;;4.57;2.47;;;15.40;95.20;;;;;;5071330;28;20700;-80
2022/11/11 11:04:55;;;;;;;4.23;2.50;;;15.50;95.10;;;;;;5071134;28;20194;-79
2022/11/11 11:07:29;;;;;;;4.83;2.93;;;15.50;94.80;;;;;;5068351;28;20244;-79
2022/11/11 11:10:01;;;;;;;6.07;3.03;;;15.60;94.80;;;;;;5074531;28;20197;-80
2022/11/11 11:12:38;;;;;;;7.17;3.07;;;15.60;94.70;;;;;;5070842;28;20229;-81
2022/11/11 11:15:11;;;;;;;7.33;2.87;;;15.60;94.60;;;;;;5076741;28;20185;-81
2022/11/11 11:17:51;;;;;;;6.93;3.40;;;15.60;94.60;;;;;;5064931;28;20237;-80
2022/11/11 11:20:20;;;;;;;5.80;3.73;;;15.70;94.40;;;;;;5072965;28;20221;-81
2022/11/11 11:22:51;;;;;;;5.33;3.30;;;15.70;94.30;;;;;;5079015;28;20201;-81
2022/11/11 11:25:20;;;;;;;6.57;3.40;;;15.70;94.10;;;;;;5070733;28;20206;-82
2022/11/11 11:27:52;;;;;;;5.13;2.97;;;15.70;94.10;;;;;;5072483;28;20194;-82
2022/11/11 11:30:23;;;;;;;4.30;2.90;;;15.80;94.10;;;;;;5067474;28;20288;-81
2022/11/11 11:33:01;;;;;;;6.07;3.70;;;15.80;94.10;;;;;;5071675;28;20728;-82
2022/11/11 11:35:34;;;;;;;5.60;3.00;;;15.90;94.10;;;;;;5071126;28;20198;-82
2022/11/11 11:38:03;;;;;;;4.87;2.30;;;16.00;94.00;;;;;;5065659;28;20230;-83
2022/11/11 11:40:49;;;;;;;5.70;2.30;;;15.90;93.60;;;;;;5069369;28;20239;-82
2022/11/11 11:43:33;;;;;;;4.93;2.37;;;16.00;93.10;;;;;;5068646;28;20654;-82
2022/11/11 11:46:03;;;;;;;3.67;2.00;;;16.00;93.10;;;;;;5067826;28;20247;-81
2022/11/11 11:49:10;;;;;;;7.10;2.00;;;16.10;92.80;;;;;;5073386;28;20293;-83
2022/11/11 11:51:48;;;;;;;5.80;2.33;;;16.10;92.80;;;;;;5071428;28;20198;-81
2022/11/11 11:54:34;;;;;;;5.87;2.53;;;16.20;92.70;;;;;;5069842;28;20194;-82
2022/11/11 11:57:13;;;;;;;4.83;2.30;;;16.20;92.30;;;;;;5068200;28;20194;-81
2022/11/11 11:59:47;;;;;;;5.73;2.07;;;16.20;91.90;;;;;;5066703;28;20251;-81
2022/11/11 12:02:34;;;;;;;4.30;2.13;;;16.20;91.70;;;;;;5072225;28;20198;-82
2022/11/11 12:05:14;;;;;;;5.97;2.80;;;16.20;91.30;;;;;;5064077;28;20185;-83
2022/11/11 12:08:03;;;;;;;3.87;2.00;;;16.20;91.20;;;;;;5072427;28;20190;-80
2022/11/11 12:10:39;;;;;;;4.73;2.00;;;16.10;90.60;;;;;;5069607;28;20273;-82
2022/11/11 12:13:25;;;;;;;4.23;2.30;;;16.10;90.60;;;;;;5070700;28;20193;-83
2022/11/11 12:16:03;;;;;;;4.15;2.33;;;16.20;90.70;;;;;;5070907;28;20991;-82
2022/11/11 12:18:55;;;;;;;3.80;1.83;;;16.20;90.70;;;;;;5072982;28;20229;-78
2022/11/11 12:21:33;;;;;;;5.57;2.50;;;16.20;90.30;;;;;;5076286;28;20234;-80
2022/11/11 12:24:11;;;;;;;8.03;3.20;;;16.20;90.30;;;;;;5078065;28;20654;-81
2022/11/11 12:26:49;;;;;;;5.03;2.83;;;16.20;90.30;;;;;;5075111;28;20245;-84
2022/11/11 12:29:32;;;;;;;5.77;2.90;;;16.20;90.10;;;;;;5074863;28;20191;-79
2022/11/11 12:32:21;;;;;;;3.50;2.23;;;16.20;90.20;;;;;;5069769;28;20268;-86
2022/11/11 12:35:19;;;;;;;5.30;2.33;;;16.20;89.40;;;;;;5060009;28;20251;-81
2022/11/11 12:37:59;;;;;;;4.40;2.27;;;16.20;89.10;;;;;;5067246;28;20202;-84
2022/11/11 12:40:50;;;;;;;5.50;2.30;;;16.20;89.20;;;;;;5075192;28;20228;-84
2022/11/11 12:43:24;;;;;;;5.97;3.07;;;16.30;89.30;;;;;;5071286;28;20248;-80
2022/11/11 12:46:05;;;;;;;4.70;2.33;;;16.30;88.70;;;;;;5060922;28;20206;-84
2022/11/11 12:48:49;;;;;;;4.60;2.30;;;16.20;87.70;;;;;;5072372;28;20545;-83
2022/11/11 12:51:30;;;;;;;5.93;2.10;;;16.30;87.90;;;;;;5072377;28;20559;-86
2022/11/11 12:54:12;;;;;;;5.87;2.00;;;16.20;87.10;;;;;;5078032;28;20198;-83
2022/11/11 12:56:49;;;;;;;4.00;1.90;;;16.30;86.40;;;;;;5073900;28;20565;-82
2022/11/11 12:59:29;;;;;;;4.83;2.10;;;16.30;85.90;;;;;;5075193;28;20198;-82
2022/11/11 13:02:12;;;;;;;4.63;1.77;;;16.40;86.10;;;;;;5076502;28;20195;-83
2022/11/11 13:04:55;;;;;;;7.37;2.40;;;16.40;86.20;;;;;;5078427;28;20202;-80
2022/11/11 13:07:42;;;;;;;3.70;1.57;;;16.40;84.90;;;;;;5077750;28;20198;-84
2022/11/11 13:10:24;;;;;;;3.50;1.83;;;16.40;84.10;;;;;;5079995;28;20650;-81
2022/11/11 13:13:00;;;;;;;6.40;1.83;;;16.40;84.00;;;;;;5072415;28;20212;-81
2022/11/11 13:15:28;;;;;;;5.23;2.10;;;16.30;83.00;;;;;;5066720;28;20194;-82
2022/11/11 13:18:00;;;;;;;4.83;2.20;;;16.30;82.70;;;;;;5071667;28;20222;-80
2022/11/11 13:20:43;;;;;;;4.73;1.90;;;16.30;82.80;;;;;;5074248;28;20708;-82
2022/11/11 13:23:12;;;;;;;4.40;2.13;;;16.20;81.80;;;;;;5064332;28;20233;-82
2022/11/11 13:25:48;;;;;;;3.80;2.20;;;16.20;81.90;;;;;;5072246;28;20194;-79
2022/11/11 13:28:28;;;;;;;5.97;2.07;;;16.20;82.30;;;;;;5066215;28;20187;-79
2022/11/11 13:31:07;;;;;;;4.90;2.53;;;16.20;81.60;;;;;;5075141;28;20282;-80
2022/11/11 13:33:41;;;;;;;3.10;1.67;;;16.20;82.30;;;;;;5065241;28;20199;-81
2022/11/11 13:36:13;;;;;;;4.37;2.47;;;16.20;82.70;;;;;;5062860;28;20206;-81
2022/11/11 13:38:46;;;;;;;3.97;1.90;;;16.20;82.80;;;;;;5070785;28;20236;-80
2022/11/11 13:41:24;;;;;;;4.73;2.33;;;16.20;83.00;;;;;;5076880;28;20780;-80
2022/11/11 13:43:55;;;;;;;4.30;2.47;;;16.20;82.50;;;;;;5083776;28;20196;-81
2022/11/11 13:46:45;;;;;;;4.13;2.47;;;16.20;82.40;;;;;;5097388;28;20210;-82
2022/11/11 13:49:25;;;;;;;5.57;2.70;;;16.20;82.50;;;;;;5072133;28;20195;-84
2022/11/11 13:52:01;;;;;;;5.87;3.37;;;16.20;82.80;;;;;;5074457;28;20190;-83
2022/11/11 13:54:34;;;;;;;6.00;3.70;;;16.20;82.90;;;;;;5084841;28;20201;-82
2022/11/11 13:57:07;;;;;;;7.67;4.33;;;16.20;83.20;;;;;;5075183;28;20190;-83
2022/11/11 13:59:39;;;;;;;8.50;4.60;;;16.20;83.40;;;;;;5071929;28;20663;-82
2022/11/11 14:02:32;;;;;;;9.17;4.63;;;16.20;83.60;;;;;;5069481;28;20203;-85
2022/11/11 14:05:17;;;;;;;6.67;3.27;;;16.30;84.60;;;;;;5064800;28;20662;-81